sensor_id;sensor_type;location;lat;lon;timestamp;P1;durP1;ratioP1;P2;durP2;ratioP2
14272;SDS011;7220;49.450;11.052;2023-06-26T00:01:21;8.50;;;7.47;;
14272;SDS011;7220;49.450;11.052;2023-06-26T00:05:22;8.90;;;8.00;;
14272;SDS011;7220;49.450;11.052;2023-06-26T00:09:22;8.67;;;7.80;;
14272;SDS011;7220;49.450;11.052;2023-06-26T00:13:23;8.35;;;7.45;;
14272;SDS011;7220;49.450;11.052;2023-06-26T00:17:24;9.13;;;8.30;;
14272;SDS011;7220;49.450;11.052;2023-06-26T00:21:24;9.53;;;8.23;;
14272;SDS011;7220;49.450;11.052;2023-06-26T00:25:25;7.93;;;7.22;;
14272;SDS011;7220;49.450;11.052;2023-06-26T00:29:25;7.57;;;6.87;;
14272;SDS011;7220;49.450;11.052;2023-06-26T00:33:26;8.30;;;7.50;;
14272;SDS011;7220;49.450;11.052;2023-06-26T00:37:26;8.00;;;7.27;;
14272;SDS011;7220;49.450;11.052;2023-06-26T00:41:26;9.05;;;8.13;;
14272;SDS011;7220;49.450;11.052;2023-06-26T00:45:27;9.07;;;8.27;;
14272;SDS011;7220;49.450;11.052;2023-06-26T00:49:27;8.20;;;7.40;;
14272;SDS011;7220;49.450;11.052;2023-06-26T00:53:27;9.65;;;7.75;;
14272;SDS011;7220;49.450;11.052;2023-06-26T00:57:29;8.68;;;7.78;;
14272;SDS011;7220;49.450;11.052;2023-06-26T01:01:30;7.97;;;7.22;;
14272;SDS011;7220;49.450;11.052;2023-06-26T01:05:30;9.17;;;7.80;;
14272;SDS011;7220;49.450;11.052;2023-06-26T01:09:31;8.88;;;8.00;;
14272;SDS011;7220;49.450;11.052;2023-06-26T01:13:31;8.65;;;7.60;;
14272;SDS011;7220;49.450;11.052;2023-06-26T01:17:33;8.73;;;7.93;;
14272;SDS011;7220;49.450;11.052;2023-06-26T01:21:35;8.52;;;7.72;;
14272;SDS011;7220;49.450;11.052;2023-06-26T01:25:48;8.60;;;7.80;;
14272;SDS011;7220;49.450;11.052;2023-06-26T01:30:02;8.68;;;7.88;;
14272;SDS011;7220;49.450;11.052;2023-06-26T01:34:04;9.32;;;8.35;;
14272;SDS011;7220;49.450;11.052;2023-06-26T01:38:11;11.77;;;8.30;;
14272;SDS011;7220;49.450;11.052;2023-06-26T01:42:13;9.57;;;8.60;;
14272;SDS011;7220;49.450;11.052;2023-06-26T01:50:29;11.13;;;9.30;;
14272;SDS011;7220;49.450;11.052;2023-06-26T01:54:33;9.85;;;8.55;;
14272;SDS011;7220;49.450;11.052;2023-06-26T01:58:43;9.50;;;8.50;;
14272;SDS011;7220;49.450;11.052;2023-06-26T02:02:45;10.35;;;9.02;;
14272;SDS011;7220;49.450;11.052;2023-06-26T02:06:45;9.25;;;8.27;;
14272;SDS011;7220;49.450;11.052;2023-06-26T02:10:45;9.87;;;8.87;;
14272;SDS011;7220;49.450;11.052;2023-06-26T02:14:46;10.43;;;8.50;;
14272;SDS011;7220;49.450;11.052;2023-06-26T02:18:46;10.03;;;9.00;;
14272;SDS011;7220;49.450;11.052;2023-06-26T02:22:46;11.60;;;10.40;;
14272;SDS011;7220;49.450;11.052;2023-06-26T02:26:47;11.07;;;9.60;;
14272;SDS011;7220;49.450;11.052;2023-06-26T02:30:49;12.75;;;9.02;;
14272;SDS011;7220;49.450;11.052;2023-06-26T02:34:49;12.00;;;9.10;;
14272;SDS011;7220;49.450;11.052;2023-06-26T02:38:51;9.98;;;8.23;;
14272;SDS011;7220;49.450;11.052;2023-06-26T02:42:51;9.80;;;8.57;;
14272;SDS011;7220;49.450;11.052;2023-06-26T02:46:52;9.30;;;8.40;;
14272;SDS011;7220;49.450;11.052;2023-06-26T02:50:52;9.50;;;7.57;;
14272;SDS011;7220;49.450;11.052;2023-06-26T02:54:52;8.67;;;7.73;;
14272;SDS011;7220;49.450;11.052;2023-06-26T02:58:53;8.53;;;7.73;;
14272;SDS011;7220;49.450;11.052;2023-06-26T03:02:53;9.57;;;7.53;;
14272;SDS011;7220;49.450;11.052;2023-06-26T03:06:53;9.43;;;8.07;;
14272;SDS011;7220;49.450;11.052;2023-06-26T03:10:53;8.50;;;7.60;;
14272;SDS011;7220;49.450;11.052;2023-06-26T03:14:54;9.67;;;8.70;;
14272;SDS011;7220;49.450;11.052;2023-06-26T03:18:54;8.90;;;8.10;;
14272;SDS011;7220;49.450;11.052;2023-06-26T03:22:54;9.63;;;8.70;;
14272;SDS011;7220;49.450;11.052;2023-06-26T03:26:54;8.47;;;7.67;;
14272;SDS011;7220;49.450;11.052;2023-06-26T03:30:55;9.18;;;8.27;;
14272;SDS011;7220;49.450;11.052;2023-06-26T03:34:55;11.70;;;8.20;;
14272;SDS011;7220;49.450;11.052;2023-06-26T03:38:56;8.63;;;7.57;;
14272;SDS011;7220;49.450;11.052;2023-06-26T03:42:57;9.35;;;8.48;;
14272;SDS011;7220;49.450;11.052;2023-06-26T03:46:57;9.60;;;8.80;;
14272;SDS011;7220;49.450;11.052;2023-06-26T03:50:57;9.00;;;8.20;;
14272;SDS011;7220;49.450;11.052;2023-06-26T03:54:58;10.18;;;8.13;;
14272;SDS011;7220;49.450;11.052;2023-06-26T03:58:58;9.57;;;8.60;;
14272;SDS011;7220;49.450;11.052;2023-06-26T04:02:58;9.70;;;8.70;;
14272;SDS011;7220;49.450;11.052;2023-06-26T04:06:59;10.40;;;9.00;;
14272;SDS011;7220;49.450;11.052;2023-06-26T04:10:59;10.93;;;8.10;;
14272;SDS011;7220;49.450;11.052;2023-06-26T04:14:59;9.25;;;8.25;;
14272;SDS011;7220;49.450;11.052;2023-06-26T04:19:00;9.80;;;8.85;;
14272;SDS011;7220;49.450;11.052;2023-06-26T04:23:02;8.73;;;7.47;;
14272;SDS011;7220;49.450;11.052;2023-06-26T04:27:02;8.37;;;7.67;;
14272;SDS011;7220;49.450;11.052;2023-06-26T04:31:03;8.90;;;8.10;;
14272;SDS011;7220;49.450;11.052;2023-06-26T04:35:04;9.15;;;8.23;;
14272;SDS011;7220;49.450;11.052;2023-06-26T04:39:04;9.57;;;8.60;;
14272;SDS011;7220;49.450;11.052;2023-06-26T04:43:05;9.65;;;7.80;;
14272;SDS011;7220;49.450;11.052;2023-06-26T04:47:05;8.97;;;7.80;;
14272;SDS011;7220;49.450;11.052;2023-06-26T04:51:05;8.40;;;7.60;;
14272;SDS011;7220;49.450;11.052;2023-06-26T04:55:06;10.40;;;8.23;;
14272;SDS011;7220;49.450;11.052;2023-06-26T04:59:06;8.15;;;7.28;;
14272;SDS011;7220;49.450;11.052;2023-06-26T05:03:07;8.05;;;7.35;;
14272;SDS011;7220;49.450;11.052;2023-06-26T05:07:07;8.20;;;7.40;;
14272;SDS011;7220;49.450;11.052;2023-06-26T05:11:07;8.37;;;7.57;;
14272;SDS011;7220;49.450;11.052;2023-06-26T05:15:07;8.53;;;7.13;;
14272;SDS011;7220;49.450;11.052;2023-06-26T05:19:08;8.75;;;7.50;;
14272;SDS011;7220;49.450;11.052;2023-06-26T05:23:08;9.47;;;8.17;;
14272;SDS011;7220;49.450;11.052;2023-06-26T05:27:11;8.20;;;7.40;;
14272;SDS011;7220;49.450;11.052;2023-06-26T05:31:19;9.68;;;7.32;;
14272;SDS011;7220;49.450;11.052;2023-06-26T05:35:20;8.13;;;7.43;;
14272;SDS011;7220;49.450;11.052;2023-06-26T05:39:22;8.65;;;7.15;;
14272;SDS011;7220;49.450;11.052;2023-06-26T05:43:22;7.55;;;6.88;;
14272;SDS011;7220;49.450;11.052;2023-06-26T05:47:23;8.27;;;7.43;;
14272;SDS011;7220;49.450;11.052;2023-06-26T05:51:23;7.90;;;7.10;;
14272;SDS011;7220;49.450;11.052;2023-06-26T05:55:24;10.68;;;7.18;;
14272;SDS011;7220;49.450;11.052;2023-06-26T05:59:25;9.13;;;8.20;;
14272;SDS011;7220;49.450;11.052;2023-06-26T06:03:26;8.77;;;7.53;;
14272;SDS011;7220;49.450;11.052;2023-06-26T06:07:27;9.77;;;8.77;;
14272;SDS011;7220;49.450;11.052;2023-06-26T06:11:27;9.57;;;8.15;;
14272;SDS011;7220;49.450;11.052;2023-06-26T06:15:27;8.57;;;7.67;;
14272;SDS011;7220;49.450;11.052;2023-06-26T06:19:27;9.15;;;8.13;;
14272;SDS011;7220;49.450;11.052;2023-06-26T06:23:28;9.17;;;7.93;;
14272;SDS011;7220;49.450;11.052;2023-06-26T06:27:28;9.32;;;8.32;;
14272;SDS011;7220;49.450;11.052;2023-06-26T06:31:28;10.25;;;8.07;;
14272;SDS011;7220;49.450;11.052;2023-06-26T06:35:29;9.77;;;7.70;;
14272;SDS011;7220;49.450;11.052;2023-06-26T06:39:29;11.93;;;7.43;;
14272;SDS011;7220;49.450;11.052;2023-06-26T06:43:29;9.07;;;8.18;;
14272;SDS011;7220;49.450;11.052;2023-06-26T06:47:30;8.20;;;7.47;;
14272;SDS011;7220;49.450;11.052;2023-06-26T06:51:31;12.77;;;8.32;;
14272;SDS011;7220;49.450;11.052;2023-06-26T06:55:32;10.37;;;8.77;;
14272;SDS011;7220;49.450;11.052;2023-06-26T06:59:32;8.67;;;7.87;;
14272;SDS011;7220;49.450;11.052;2023-06-26T07:03:32;8.87;;;7.80;;
14272;SDS011;7220;49.450;11.052;2023-06-26T07:07:33;8.73;;;7.82;;
14272;SDS011;7220;49.450;11.052;2023-06-26T07:11:34;9.90;;;7.72;;
14272;SDS011;7220;49.450;11.052;2023-06-26T07:15:35;9.23;;;8.20;;
14272;SDS011;7220;49.450;11.052;2023-06-26T07:19:35;11.00;;;7.78;;
14272;SDS011;7220;49.450;11.052;2023-06-26T07:23:35;8.25;;;7.32;;
14272;SDS011;7220;49.450;11.052;2023-06-26T07:27:36;9.07;;;7.83;;
14272;SDS011;7220;49.450;11.052;2023-06-26T07:31:37;8.18;;;7.22;;
14272;SDS011;7220;49.450;11.052;2023-06-26T07:35:37;8.47;;;7.57;;
14272;SDS011;7220;49.450;11.052;2023-06-26T07:39:38;10.25;;;7.47;;
14272;SDS011;7220;49.450;11.052;2023-06-26T07:43:38;8.10;;;7.40;;
14272;SDS011;7220;49.450;11.052;2023-06-26T07:47:39;9.23;;;7.77;;
14272;SDS011;7220;49.450;11.052;2023-06-26T07:51:39;10.23;;;8.13;;
14272;SDS011;7220;49.450;11.052;2023-06-26T07:55:40;8.63;;;7.80;;
14272;SDS011;7220;49.450;11.052;2023-06-26T07:59:40;8.52;;;7.55;;
14272;SDS011;7220;49.450;11.052;2023-06-26T08:03:40;8.87;;;7.53;;
14272;SDS011;7220;49.450;11.052;2023-06-26T08:07:41;8.85;;;7.93;;
14272;SDS011;7220;49.450;11.052;2023-06-26T08:11:41;11.05;;;8.23;;
14272;SDS011;7220;49.450;11.052;2023-06-26T08:15:41;7.90;;;7.20;;
14272;SDS011;7220;49.450;11.052;2023-06-26T08:19:42;8.30;;;7.28;;
14272;SDS011;7220;49.450;11.052;2023-06-26T08:23:42;8.27;;;7.27;;
14272;SDS011;7220;49.450;11.052;2023-06-26T08:27:42;14.27;;;7.43;;
14272;SDS011;7220;49.450;11.052;2023-06-26T08:31:43;11.20;;;6.97;;
14272;SDS011;7220;49.450;11.052;2023-06-26T08:35:44;11.35;;;7.80;;
14272;SDS011;7220;49.450;11.052;2023-06-26T08:39:44;8.47;;;7.33;;
14272;SDS011;7220;49.450;11.052;2023-06-26T08:43:44;8.60;;;6.87;;
14272;SDS011;7220;49.450;11.052;2023-06-26T08:47:45;8.38;;;7.53;;
14272;SDS011;7220;49.450;11.052;2023-06-26T08:51:49;8.73;;;7.32;;
14272;SDS011;7220;49.450;11.052;2023-06-26T08:55:52;8.10;;;7.30;;
14272;SDS011;7220;49.450;11.052;2023-06-26T08:59:54;8.48;;;7.63;;
14272;SDS011;7220;49.450;11.052;2023-06-26T09:03:55;8.10;;;7.38;;
14272;SDS011;7220;49.450;11.052;2023-06-26T09:07:55;7.50;;;6.77;;
14272;SDS011;7220;49.450;11.052;2023-06-26T09:11:55;7.70;;;7.00;;
14272;SDS011;7220;49.450;11.052;2023-06-26T09:15:56;7.90;;;6.93;;
14272;SDS011;7220;49.450;11.052;2023-06-26T09:19:56;7.88;;;6.30;;
14272;SDS011;7220;49.450;11.052;2023-06-26T09:23:57;7.23;;;6.53;;
14272;SDS011;7220;49.450;11.052;2023-06-26T09:27:58;7.20;;;6.53;;
14272;SDS011;7220;49.450;11.052;2023-06-26T09:31:59;10.25;;;6.95;;
14272;SDS011;7220;49.450;11.052;2023-06-26T09:36:00;8.95;;;6.60;;
14272;SDS011;7220;49.450;11.052;2023-06-26T09:40:00;8.93;;;6.77;;
14272;SDS011;7220;49.450;11.052;2023-06-26T09:44:01;7.60;;;6.60;;
14272;SDS011;7220;49.450;11.052;2023-06-26T09:48:03;6.55;;;5.85;;
14272;SDS011;7220;49.450;11.052;2023-06-26T09:52:05;6.95;;;6.35;;
14272;SDS011;7220;49.450;11.052;2023-06-26T09:56:06;6.60;;;5.95;;
14272;SDS011;7220;49.450;11.052;2023-06-26T10:00:07;7.50;;;6.35;;
14272;SDS011;7220;49.450;11.052;2023-06-26T10:04:09;7.25;;;6.50;;
14272;SDS011;7220;49.450;11.052;2023-06-26T10:08:09;7.40;;;6.80;;
14272;SDS011;7220;49.450;11.052;2023-06-26T10:12:22;6.88;;;6.18;;
14272;SDS011;7220;49.450;11.052;2023-06-26T10:16:27;6.53;;;6.03;;
14272;SDS011;7220;49.450;11.052;2023-06-26T10:20:31;6.78;;;6.20;;
14272;SDS011;7220;49.450;11.052;2023-06-26T10:24:34;6.78;;;6.18;;
14272;SDS011;7220;49.450;11.052;2023-06-26T10:28:36;7.20;;;6.50;;
14272;SDS011;7220;49.450;11.052;2023-06-26T10:32:37;7.53;;;6.78;;
14272;SDS011;7220;49.450;11.052;2023-06-26T10:36:39;6.60;;;6.00;;
14272;SDS011;7220;49.450;11.052;2023-06-26T10:40:45;7.38;;;5.93;;
14272;SDS011;7220;49.450;11.052;2023-06-26T10:44:47;7.35;;;6.57;;
14272;SDS011;7220;49.450;11.052;2023-06-26T10:48:57;6.43;;;5.80;;
14272;SDS011;7220;49.450;11.052;2023-06-26T10:57:25;8.00;;;6.35;;
14272;SDS011;7220;49.450;11.052;2023-06-26T11:01:25;7.00;;;5.95;;
14272;SDS011;7220;49.450;11.052;2023-06-26T11:05:27;7.28;;;6.53;;
14272;SDS011;7220;49.450;11.052;2023-06-26T11:09:28;7.00;;;6.30;;
14272;SDS011;7220;49.450;11.052;2023-06-26T11:13:28;6.80;;;6.20;;
14272;SDS011;7220;49.450;11.052;2023-06-26T11:17:29;6.90;;;6.20;;
14272;SDS011;7220;49.450;11.052;2023-06-26T11:21:31;7.05;;;6.35;;
14272;SDS011;7220;49.450;11.052;2023-06-26T11:25:36;6.60;;;6.00;;
14272;SDS011;7220;49.450;11.052;2023-06-26T11:29:37;8.55;;;5.65;;
14272;SDS011;7220;49.450;11.052;2023-06-26T11:33:37;6.33;;;5.83;;
14272;SDS011;7220;49.450;11.052;2023-06-26T11:37:37;6.47;;;5.87;;
14272;SDS011;7220;49.450;11.052;2023-06-26T11:41:38;6.33;;;5.70;;
14272;SDS011;7220;49.450;11.052;2023-06-26T11:45:39;6.20;;;5.65;;
14272;SDS011;7220;49.450;11.052;2023-06-26T11:49:44;5.82;;;5.32;;
14272;SDS011;7220;49.450;11.052;2023-06-26T11:53:45;5.47;;;4.97;;
14272;SDS011;7220;49.450;11.052;2023-06-26T11:57:47;5.72;;;5.22;;
14272;SDS011;7220;49.450;11.052;2023-06-26T12:01:50;6.25;;;5.65;;
14272;SDS011;7220;49.450;11.052;2023-06-26T12:05:51;5.20;;;4.80;;
14272;SDS011;7220;49.450;11.052;2023-06-26T12:09:52;5.63;;;5.13;;
14272;SDS011;7220;49.450;11.052;2023-06-26T12:13:53;5.03;;;4.63;;
14272;SDS011;7220;49.450;11.052;2023-06-26T12:17:54;5.82;;;5.32;;
14272;SDS011;7220;49.450;11.052;2023-06-26T12:21:54;6.17;;;5.03;;
14272;SDS011;7220;49.450;11.052;2023-06-26T12:25:56;5.57;;;4.95;;
14272;SDS011;7220;49.450;11.052;2023-06-26T12:29:56;6.37;;;5.27;;
14272;SDS011;7220;49.450;11.052;2023-06-26T12:33:57;5.72;;;5.15;;
14272;SDS011;7220;49.450;11.052;2023-06-26T12:37:57;5.88;;;5.38;;
14272;SDS011;7220;49.450;11.052;2023-06-26T12:41:59;5.50;;;5.00;;
14272;SDS011;7220;49.450;11.052;2023-06-26T12:46:01;5.18;;;4.78;;
14272;SDS011;7220;49.450;11.052;2023-06-26T12:50:04;7.33;;;5.20;;
14272;SDS011;7220;49.450;11.052;2023-06-26T12:54:05;6.00;;;5.25;;
14272;SDS011;7220;49.450;11.052;2023-06-26T12:58:06;6.22;;;5.72;;
14272;SDS011;7220;49.450;11.052;2023-06-26T13:02:07;5.88;;;5.38;;
14272;SDS011;7220;49.450;11.052;2023-06-26T13:06:08;6.78;;;4.93;;
14272;SDS011;7220;49.450;11.052;2023-06-26T13:10:09;6.65;;;5.50;;
14272;SDS011;7220;49.450;11.052;2023-06-26T13:14:09;6.57;;;5.10;;
14272;SDS011;7220;49.450;11.052;2023-06-26T13:18:09;5.83;;;5.23;;
14272;SDS011;7220;49.450;11.052;2023-06-26T13:22:10;6.13;;;5.63;;
14272;SDS011;7220;49.450;11.052;2023-06-26T13:26:10;7.03;;;5.97;;
14272;SDS011;7220;49.450;11.052;2023-06-26T13:30:11;7.65;;;6.38;;
14272;SDS011;7220;49.450;11.052;2023-06-26T13:34:19;6.35;;;5.80;;
14272;SDS011;7220;49.450;11.052;2023-06-26T13:38:22;6.97;;;6.05;;
14272;SDS011;7220;49.450;11.052;2023-06-26T13:42:24;6.85;;;6.25;;
14272;SDS011;7220;49.450;11.052;2023-06-26T13:46:24;6.53;;;5.93;;
14272;SDS011;7220;49.450;11.052;2023-06-26T13:50:25;7.10;;;5.65;;
14272;SDS011;7220;49.450;11.052;2023-06-26T13:54:25;6.47;;;5.87;;
14272;SDS011;7220;49.450;11.052;2023-06-26T13:58:25;6.57;;;5.80;;
14272;SDS011;7220;49.450;11.052;2023-06-26T14:02:26;5.90;;;5.40;;
14272;SDS011;7220;49.450;11.052;2023-06-26T14:06:27;6.70;;;6.10;;
14272;SDS011;7220;49.450;11.052;2023-06-26T14:10:27;6.80;;;6.10;;
14272;SDS011;7220;49.450;11.052;2023-06-26T14:14:28;6.10;;;5.50;;
14272;SDS011;7220;49.450;11.052;2023-06-26T14:18:28;6.70;;;6.10;;
14272;SDS011;7220;49.450;11.052;2023-06-26T14:22:28;6.87;;;5.53;;
14272;SDS011;7220;49.450;11.052;2023-06-26T14:26:28;7.30;;;6.20;;
14272;SDS011;7220;49.450;11.052;2023-06-26T14:30:29;6.55;;;5.95;;
14272;SDS011;7220;49.450;11.052;2023-06-26T14:34:30;9.00;;;6.30;;
14272;SDS011;7220;49.450;11.052;2023-06-26T14:38:30;7.33;;;6.60;;
14272;SDS011;7220;49.450;11.052;2023-06-26T14:42:30;8.27;;;7.50;;
14272;SDS011;7220;49.450;11.052;2023-06-26T14:46:31;9.20;;;6.93;;
14272;SDS011;7220;49.450;11.052;2023-06-26T14:50:31;9.73;;;7.60;;
14272;SDS011;7220;49.450;11.052;2023-06-26T14:54:32;7.43;;;6.63;;
14272;SDS011;7220;49.450;11.052;2023-06-26T14:58:33;7.60;;;6.45;;
14272;SDS011;7220;49.450;11.052;2023-06-26T15:02:33;7.40;;;6.70;;
14272;SDS011;7220;49.450;11.052;2023-06-26T15:06:34;10.13;;;7.30;;
14272;SDS011;7220;49.450;11.052;2023-06-26T15:10:34;7.30;;;6.45;;
14272;SDS011;7220;49.450;11.052;2023-06-26T15:14:35;10.77;;;7.40;;
14272;SDS011;7220;49.450;11.052;2023-06-26T15:18:35;7.93;;;7.30;;
14272;SDS011;7220;49.450;11.052;2023-06-26T15:22:35;10.05;;;7.40;;
14272;SDS011;7220;49.450;11.052;2023-06-26T15:26:36;8.63;;;6.87;;
14272;SDS011;7220;49.450;11.052;2023-06-26T15:30:36;8.18;;;7.03;;
14272;SDS011;7220;49.450;11.052;2023-06-26T15:34:36;7.63;;;6.93;;
14272;SDS011;7220;49.450;11.052;2023-06-26T15:38:37;7.90;;;7.10;;
14272;SDS011;7220;49.450;11.052;2023-06-26T15:42:47;8.23;;;7.13;;
14272;SDS011;7220;49.450;11.052;2023-06-26T15:46:48;8.10;;;7.30;;
14272;SDS011;7220;49.450;11.052;2023-06-26T15:50:49;7.43;;;6.47;;
14272;SDS011;7220;49.450;11.052;2023-06-26T15:54:49;7.13;;;6.53;;
14272;SDS011;7220;49.450;11.052;2023-06-26T15:58:49;7.93;;;7.23;;
14272;SDS011;7220;49.450;11.052;2023-06-26T16:02:50;9.20;;;7.13;;
14272;SDS011;7220;49.450;11.052;2023-06-26T16:06:50;8.60;;;7.23;;
14272;SDS011;7220;49.450;11.052;2023-06-26T16:10:52;8.55;;;6.80;;
14272;SDS011;7220;49.450;11.052;2023-06-26T16:14:53;9.93;;;6.68;;
14272;SDS011;7220;49.450;11.052;2023-06-26T16:18:53;8.53;;;7.70;;
14272;SDS011;7220;49.450;11.052;2023-06-26T16:22:53;8.85;;;7.47;;
14272;SDS011;7220;49.450;11.052;2023-06-26T16:26:55;7.35;;;6.57;;
14272;SDS011;7220;49.450;11.052;2023-06-26T16:30:55;7.77;;;6.87;;
14272;SDS011;7220;49.450;11.052;2023-06-26T16:34:56;7.83;;;7.03;;
14272;SDS011;7220;49.450;11.052;2023-06-26T16:38:56;8.05;;;7.28;;
14272;SDS011;7220;49.450;11.052;2023-06-26T16:42:57;8.07;;;7.20;;
14272;SDS011;7220;49.450;11.052;2023-06-26T16:46:58;7.80;;;7.03;;
14272;SDS011;7220;49.450;11.052;2023-06-26T16:50:59;7.72;;;7.03;;
14272;SDS011;7220;49.450;11.052;2023-06-26T16:54:59;7.40;;;6.38;;
14272;SDS011;7220;49.450;11.052;2023-06-26T16:58:59;6.40;;;5.90;;
14272;SDS011;7220;49.450;11.052;2023-06-26T17:03:00;7.10;;;6.07;;
14272;SDS011;7220;49.450;11.052;2023-06-26T17:07:00;7.67;;;6.87;;
14272;SDS011;7220;49.450;11.052;2023-06-26T17:11:00;7.57;;;6.80;;
14272;SDS011;7220;49.450;11.052;2023-06-26T17:15:00;8.47;;;7.13;;
14272;SDS011;7220;49.450;11.052;2023-06-26T17:19:03;7.47;;;6.40;;
14272;SDS011;7220;49.450;11.052;2023-06-26T17:23:05;6.55;;;5.95;;
14272;SDS011;7220;49.450;11.052;2023-06-26T17:27:12;7.60;;;6.25;;
14272;SDS011;7220;49.450;11.052;2023-06-26T17:31:20;8.48;;;6.07;;
14272;SDS011;7220;49.450;11.052;2023-06-26T17:35:21;5.80;;;5.28;;
14272;SDS011;7220;49.450;11.052;2023-06-26T17:39:22;6.13;;;5.57;;
14272;SDS011;7220;49.450;11.052;2023-06-26T17:43:22;6.40;;;5.80;;
14272;SDS011;7220;49.450;11.052;2023-06-26T17:47:23;7.18;;;6.32;;
14272;SDS011;7220;49.450;11.052;2023-06-26T17:51:24;7.20;;;6.50;;
14272;SDS011;7220;49.450;11.052;2023-06-26T17:55:24;7.70;;;6.40;;
14272;SDS011;7220;49.450;11.052;2023-06-26T17:59:25;6.85;;;6.15;;
14272;SDS011;7220;49.450;11.052;2023-06-26T18:03:25;9.50;;;7.30;;
14272;SDS011;7220;49.450;11.052;2023-06-26T18:07:26;8.83;;;6.40;;
14272;SDS011;7220;49.450;11.052;2023-06-26T18:11:26;11.00;;;6.70;;
14272;SDS011;7220;49.450;11.052;2023-06-26T18:15:26;8.00;;;6.85;;
14272;SDS011;7220;49.450;11.052;2023-06-26T18:19:27;8.35;;;6.88;;
14272;SDS011;7220;49.450;11.052;2023-06-26T18:23:27;6.57;;;5.93;;
14272;SDS011;7220;49.450;11.052;2023-06-26T18:27:33;6.87;;;6.10;;
14272;SDS011;7220;49.450;11.052;2023-06-26T18:31:34;8.00;;;6.20;;
14272;SDS011;7220;49.450;11.052;2023-06-26T18:35:34;8.20;;;6.22;;
14272;SDS011;7220;49.450;11.052;2023-06-26T18:39:35;9.18;;;6.25;;
14272;SDS011;7220;49.450;11.052;2023-06-26T18:43:39;7.43;;;6.28;;
14272;SDS011;7220;49.450;11.052;2023-06-26T18:47:40;7.25;;;6.50;;
14272;SDS011;7220;49.450;11.052;2023-06-26T18:51:41;6.65;;;6.05;;
14272;SDS011;7220;49.450;11.052;2023-06-26T18:55:41;11.10;;;6.60;;
14272;SDS011;7220;49.450;11.052;2023-06-26T18:59:41;9.20;;;6.00;;
14272;SDS011;7220;49.450;11.052;2023-06-26T19:03:42;8.03;;;6.33;;
14272;SDS011;7220;49.450;11.052;2023-06-26T19:07:42;6.67;;;5.87;;
14272;SDS011;7220;49.450;11.052;2023-06-26T19:11:42;7.17;;;6.13;;
14272;SDS011;7220;49.450;11.052;2023-06-26T19:15:43;6.83;;;6.13;;
14272;SDS011;7220;49.450;11.052;2023-06-26T19:19:44;8.15;;;4.93;;
14272;SDS011;7220;49.450;11.052;2023-06-26T19:23:44;7.93;;;5.35;;
14272;SDS011;7220;49.450;11.052;2023-06-26T19:27:45;7.10;;;5.40;;
14272;SDS011;7220;49.450;11.052;2023-06-26T19:31:46;6.30;;;4.82;;
14272;SDS011;7220;49.450;11.052;2023-06-26T19:35:48;5.57;;;4.82;;
14272;SDS011;7220;49.450;11.052;2023-06-26T19:39:48;6.53;;;3.73;;
14272;SDS011;7220;49.450;11.052;2023-06-26T19:43:49;5.47;;;3.97;;
14272;SDS011;7220;49.450;11.052;2023-06-26T19:47:49;4.47;;;3.40;;
14272;SDS011;7220;49.450;11.052;2023-06-26T19:51:51;4.82;;;3.47;;
14272;SDS011;7220;49.450;11.052;2023-06-26T19:55:51;3.40;;;3.07;;
14272;SDS011;7220;49.450;11.052;2023-06-26T19:59:51;4.87;;;3.20;;
14272;SDS011;7220;49.450;11.052;2023-06-26T20:03:52;4.50;;;3.13;;
14272;SDS011;7220;49.450;11.052;2023-06-26T20:07:52;3.77;;;3.40;;
14272;SDS011;7220;49.450;11.052;2023-06-26T20:11:52;3.63;;;3.30;;
14272;SDS011;7220;49.450;11.052;2023-06-26T20:15:53;6.73;;;3.70;;
14272;SDS011;7220;49.450;11.052;2023-06-26T20:19:53;5.18;;;3.40;;
14272;SDS011;7220;49.450;11.052;2023-06-26T20:23:53;6.40;;;3.00;;
14272;SDS011;7220;49.450;11.052;2023-06-26T20:27:54;4.13;;;3.13;;
14272;SDS011;7220;49.450;11.052;2023-06-26T20:31:54;4.90;;;3.10;;
14272;SDS011;7220;49.450;11.052;2023-06-26T20:35:54;3.97;;;2.90;;
14272;SDS011;7220;49.450;11.052;2023-06-26T20:39:54;5.57;;;2.83;;
14272;SDS011;7220;49.450;11.052;2023-06-26T20:43:55;5.05;;;3.00;;
14272;SDS011;7220;49.450;11.052;2023-06-26T20:47:57;5.20;;;3.22;;
14272;SDS011;7220;49.450;11.052;2023-06-26T20:51:57;3.17;;;2.88;;
14272;SDS011;7220;49.450;11.052;2023-06-26T20:55:58;3.95;;;3.08;;
14272;SDS011;7220;49.450;11.052;2023-06-26T20:59:58;5.10;;;2.80;;
14272;SDS011;7220;49.450;11.052;2023-06-26T21:03:59;4.63;;;2.63;;
14272;SDS011;7220;49.450;11.052;2023-06-26T21:07:59;6.78;;;3.10;;
14272;SDS011;7220;49.450;11.052;2023-06-26T21:12:00;4.68;;;2.90;;
14272;SDS011;7220;49.450;11.052;2023-06-26T21:16:03;3.78;;;2.85;;
14272;SDS011;7220;49.450;11.052;2023-06-26T21:20:04;5.07;;;2.67;;
14272;SDS011;7220;49.450;11.052;2023-06-26T21:24:04;4.50;;;2.72;;
14272;SDS011;7220;49.450;11.052;2023-06-26T21:28:05;3.67;;;2.50;;
14272;SDS011;7220;49.450;11.052;2023-06-26T21:32:05;3.03;;;2.60;;
14272;SDS011;7220;49.450;11.052;2023-06-26T21:36:06;6.25;;;3.17;;
14272;SDS011;7220;49.450;11.052;2023-06-26T21:40:07;5.72;;;3.17;;
14272;SDS011;7220;49.450;11.052;2023-06-26T21:44:07;3.78;;;2.55;;
14272;SDS011;7220;49.450;11.052;2023-06-26T21:48:08;4.13;;;2.80;;
14272;SDS011;7220;49.450;11.052;2023-06-26T21:52:09;3.73;;;2.70;;
14272;SDS011;7220;49.450;11.052;2023-06-26T21:56:11;3.55;;;2.60;;
14272;SDS011;7220;49.450;11.052;2023-06-26T22:00:11;4.40;;;2.72;;
14272;SDS011;7220;49.450;11.052;2023-06-26T22:04:12;4.85;;;2.58;;
14272;SDS011;7220;49.450;11.052;2023-06-26T22:08:13;6.10;;;2.60;;
14272;SDS011;7220;49.450;11.052;2023-06-26T22:12:13;4.53;;;2.67;;
14272;SDS011;7220;49.450;11.052;2023-06-26T22:16:13;4.40;;;2.55;;
14272;SDS011;7220;49.450;11.052;2023-06-26T22:20:14;3.30;;;2.30;;
14272;SDS011;7220;49.450;11.052;2023-06-26T22:24:15;5.20;;;2.80;;
14272;SDS011;7220;49.450;11.052;2023-06-26T22:28:17;4.25;;;2.22;;
14272;SDS011;7220;49.450;11.052;2023-06-26T22:32:17;3.10;;;2.33;;
14272;SDS011;7220;49.450;11.052;2023-06-26T22:36:18;5.90;;;2.70;;
14272;SDS011;7220;49.450;11.052;2023-06-26T22:40:19;5.43;;;2.60;;
14272;SDS011;7220;49.450;11.052;2023-06-26T22:44:19;4.45;;;2.30;;
14272;SDS011;7220;49.450;11.052;2023-06-26T22:48:19;4.28;;;2.40;;
14272;SDS011;7220;49.450;11.052;2023-06-26T22:52:20;4.10;;;2.60;;
14272;SDS011;7220;49.450;11.052;2023-06-26T22:56:20;2.75;;;2.28;;
14272;SDS011;7220;49.450;11.052;2023-06-26T23:00:21;4.78;;;2.65;;
14272;SDS011;7220;49.450;11.052;2023-06-26T23:04:21;6.28;;;2.70;;
14272;SDS011;7220;49.450;11.052;2023-06-26T23:08:21;3.42;;;2.40;;
14272;SDS011;7220;49.450;11.052;2023-06-26T23:12:22;5.75;;;2.50;;
14272;SDS011;7220;49.450;11.052;2023-06-26T23:16:22;3.97;;;2.70;;
14272;SDS011;7220;49.450;11.052;2023-06-26T23:20:22;3.07;;;2.20;;
14272;SDS011;7220;49.450;11.052;2023-06-26T23:24:23;3.97;;;2.53;;
14272;SDS011;7220;49.450;11.052;2023-06-26T23:28:24;5.65;;;2.40;;
14272;SDS011;7220;49.450;11.052;2023-06-26T23:32:24;4.65;;;2.50;;
14272;SDS011;7220;49.450;11.052;2023-06-26T23:36:25;3.85;;;2.55;;
14272;SDS011;7220;49.450;11.052;2023-06-26T23:40:28;3.42;;;2.33;;
14272;SDS011;7220;49.450;11.052;2023-06-26T23:44:32;4.25;;;2.30;;
14272;SDS011;7220;49.450;11.052;2023-06-26T23:48:39;2.53;;;2.22;;
14272;SDS011;7220;49.450;11.052;2023-06-26T23:52:40;8.35;;;2.45;;
14272;SDS011;7220;49.450;11.052;2023-06-26T23:56:40;3.55;;;2.20;;
